Time;durP1;ratioP1;P1;durP2;ratioP2;P2;SDS_P1;SDS_P2;PMS_P1;PMS_P2;Temp;Humidity;BMP_temperature;BMP_pressure;BME280_temperature;BME280_humidity;BME280_pressure;Samples;Min_cycle;Max_cycle;Signal;HPM_P1;HPM_P2
2022/03/05 00:01:05;;;;;;;15.45;8.70;;;-2.00;99.90;;;;;;4408546;32;20141;-61
2022/03/05 00:03:32;;;;;;;15.68;10.35;;;-2.00;99.90;;;;;;4406759;32;20527;-62
2022/03/05 00:05:58;;;;;;;15.30;10.23;;;-2.10;99.90;;;;;;4406670;32;20452;-62
2022/03/05 00:08:24;;;;;;;15.55;9.82;;;-2.10;99.90;;;;;;4406998;32;20104;-62
2022/03/05 00:10:51;;;;;;;17.17;9.43;;;-2.10;99.90;;;;;;4407291;32;20073;-62
2022/03/05 00:15:57;;;;;;;15.10;9.87;;;-2.10;99.90;;;;;;3836223;37;20046;-63
2022/03/05 00:18:24;;;;;;;14.85;8.65;;;-2.10;99.90;;;;;;4391312;32;20184;-61
2022/03/05 00:20:51;;;;;;;14.80;9.18;;;-2.10;99.90;;;;;;4378247;32;20093;-61
2022/03/05 00:23:18;;;;;;;12.60;7.95;;;-2.10;99.90;;;;;;4404549;32;20073;-62
2022/03/05 00:25:45;;;;;;;16.70;9.40;;;-2.00;99.90;;;;;;4390352;32;20074;-63
2022/03/05 00:28:12;;;;;;;16.48;9.80;;;-2.00;99.90;;;;;;4404727;32;20089;-63
2022/03/05 00:30:39;;;;;;;16.33;9.10;;;-2.00;99.90;;;;;;4404396;32;20074;-61
2022/03/05 00:33:05;;;;;;;13.82;8.18;;;-2.00;99.90;;;;;;4391227;32;20078;-62
2022/03/05 00:35:32;;;;;;;14.57;9.88;;;-2.00;99.90;;;;;;4390150;32;20478;-62
2022/03/05 00:37:59;;;;;;;14.50;8.45;;;-2.00;99.90;;;;;;4377528;32;20444;-62
2022/03/05 00:40:25;;;;;;;13.57;9.05;;;-2.00;99.90;;;;;;4390086;32;20091;-62
2022/03/05 00:42:52;;;;;;;14.52;10.18;;;-2.00;99.90;;;;;;4390472;32;20082;-61
2022/03/05 00:45:19;;;;;;;17.60;9.25;;;-2.00;99.90;;;;;;4390844;32;20145;-61
2022/03/05 00:47:45;;;;;;;14.38;8.32;;;-2.00;99.90;;;;;;4404383;32;20526;-61
2022/03/05 00:50:11;;;;;;;14.35;8.68;;;-2.00;99.90;;;;;;4404261;32;20110;-62
2022/03/05 00:52:38;;;;;;;14.98;10.35;;;-2.00;99.90;;;;;;4403929;32;20169;-63
2022/03/05 00:55:06;;;;;;;17.40;10.25;;;-2.00;99.90;;;;;;4390172;32;20101;-62
2022/03/05 00:57:32;;;;;;;15.52;10.55;;;-2.00;99.90;;;;;;4390458;32;20587;-62
2022/03/05 00:59:58;;;;;;;16.10;8.90;;;-2.00;99.90;;;;;;4390007;32;20182;-62
2022/03/05 01:02:25;;;;;;;13.95;8.82;;;-2.00;99.90;;;;;;4404018;32;20078;-62
2022/03/05 01:04:51;;;;;;;15.52;9.80;;;-2.00;99.90;;;;;;4404124;32;20098;-62
2022/03/05 01:07:17;;;;;;;17.12;10.75;;;-1.90;99.90;;;;;;4403641;32;20079;-62
2022/03/05 01:09:43;;;;;;;17.62;10.80;;;-1.90;99.90;;;;;;4389823;32;20084;-62
2022/03/05 01:12:10;;;;;;;14.82;10.02;;;-1.90;99.90;;;;;;4403084;32;20094;-62
2022/03/05 01:14:37;;;;;;;16.12;8.18;;;-1.90;99.90;;;;;;4388385;32;20078;-62
2022/03/05 01:17:04;;;;;;;14.87;9.13;;;-1.80;99.90;;;;;;4388833;32;20158;-62
2022/03/05 01:19:30;;;;;;;15.43;9.75;;;-1.90;99.90;;;;;;4375332;32;20077;-63
2022/03/05 01:21:57;;;;;;;15.18;9.40;;;-1.90;99.90;;;;;;4388571;32;20082;-62
2022/03/05 01:24:23;;;;;;;17.98;11.27;;;-1.90;99.90;;;;;;4387862;32;20093;-61
2022/03/05 01:26:49;;;;;;;14.73;8.85;;;-1.90;99.90;;;;;;4379165;32;20246;-63
2022/03/05 01:29:15;;;;;;;14.57;9.50;;;-2.00;99.90;;;;;;4376980;32;20093;-62
2022/03/05 01:31:42;;;;;;;14.48;9.90;;;-2.00;99.90;;;;;;4378474;32;20089;-62
2022/03/05 01:34:08;;;;;;;15.75;10.25;;;-2.00;99.90;;;;;;4378042;32;20113;-62
2022/03/05 01:36:34;;;;;;;14.38;9.82;;;-2.00;99.90;;;;;;4376631;32;20123;-62
2022/03/05 01:39:01;;;;;;;15.63;10.48;;;-2.00;99.90;;;;;;4378157;32;20517;-63
2022/03/05 01:41:28;;;;;;;14.90;9.43;;;-2.00;99.90;;;;;;4378263;32;20464;-62
2022/03/05 01:43:54;;;;;;;16.05;10.02;;;-2.00;99.90;;;;;;4376955;32;20175;-62
2022/03/05 01:46:34;;;;;;;14.07;9.65;;;-2.10;99.90;;;;;;4378203;32;20093;-61
2022/03/05 01:49:05;;;;;;;14.73;8.52;;;-2.00;99.90;;;;;;4378190;32;20504;-62
2022/03/05 01:51:32;;;;;;;14.95;8.20;;;-2.00;99.90;;;;;;4378050;32;20105;-62
2022/03/05 01:53:58;;;;;;;13.98;9.75;;;-2.00;99.90;;;;;;4378093;32;20066;-62
2022/03/05 01:56:26;;;;;;;13.55;9.00;;;-2.00;99.90;;;;;;4376399;32;20153;-62
2022/03/05 01:58:53;;;;;;;15.27;9.88;;;-2.00;99.90;;;;;;4364670;32;20091;-63
2022/03/05 02:01:25;;;;;;;15.80;9.85;;;-2.00;99.90;;;;;;4376606;32;20084;-61
2022/03/05 02:03:51;;;;;;;13.55;9.25;;;-2.00;99.90;;;;;;4376904;32;20098;-62
2022/03/05 02:06:19;;;;;;;14.52;9.85;;;-2.00;99.90;;;;;;4364220;32;20074;-62
2022/03/05 02:08:45;;;;;;;12.50;8.15;;;-2.10;99.90;;;;;;4364469;32;20097;-61
2022/03/05 02:11:12;;;;;;;15.48;8.68;;;-2.10;99.90;;;;;;4376848;32;20084;-63
2022/03/05 02:13:38;;;;;;;14.40;8.55;;;-2.10;99.90;;;;;;4378046;32;20075;-62
2022/03/05 02:16:05;;;;;;;14.40;10.15;;;-2.20;99.90;;;;;;4379108;32;20078;-61
2022/03/05 02:18:31;;;;;;;14.60;9.98;;;-2.20;99.90;;;;;;4378642;32;20069;-63
2022/03/05 02:20:57;;;;;;;14.57;10.15;;;-2.20;99.90;;;;;;4393159;32;20583;-62
2022/03/05 02:23:24;;;;;;;14.38;9.02;;;-2.20;99.90;;;;;;4392955;32;20145;-63
2022/03/05 02:26:04;;;;;;;16.85;8.75;;;-2.20;99.90;;;;;;4365926;32;20169;-61
2022/03/05 02:28:33;;;;;;;17.12;10.65;;;-2.20;99.90;;;;;;4378810;32;20523;-63
2022/03/05 02:31:00;;;;;;;15.10;11.10;;;-2.30;99.90;;;;;;4378654;32;20065;-62
2022/03/05 02:33:27;;;;;;;26.52;10.70;;;-2.30;99.90;;;;;;4392612;32;20088;-63
2022/03/05 02:35:54;;;;;;;16.45;10.38;;;-2.30;99.90;;;;;;4378539;32;20090;-62
2022/03/05 02:38:23;;;;;;;16.87;11.18;;;-2.30;99.90;;;;;;4393057;32;20061;-61
2022/03/05 02:40:51;;;;;;;17.25;10.60;;;-2.30;99.90;;;;;;4379176;32;20513;-62
2022/03/05 02:43:19;;;;;;;14.27;10.15;;;-2.30;99.90;;;;;;4378763;32;20221;-62
2022/03/05 02:45:45;;;;;;;15.95;11.10;;;-2.30;99.90;;;;;;4392712;32;20504;-62
2022/03/05 02:48:15;;;;;;;15.25;10.18;;;-2.40;99.90;;;;;;4392364;32;20062;-62
2022/03/05 02:50:42;;;;;;;15.40;9.80;;;-2.30;99.90;;;;;;4378406;32;20072;-63
2022/03/05 02:53:09;;;;;;;13.65;8.88;;;-2.40;99.90;;;;;;4366232;32;20081;-62
2022/03/05 02:55:35;;;;;;;16.95;10.05;;;-2.40;99.90;;;;;;4378009;32;20084;-62
2022/03/05 02:58:03;;;;;;;18.50;9.75;;;-2.40;99.90;;;;;;4392241;32;20157;-63
2022/03/05 03:00:31;;;;;;;15.52;9.75;;;-2.40;99.90;;;;;;4366606;32;20096;-63
2022/03/05 03:02:58;;;;;;;14.65;8.48;;;-2.40;99.90;;;;;;4378219;32;20078;-62
2022/03/05 03:05:24;;;;;;;14.82;9.50;;;-2.40;99.90;;;;;;4378381;32;20089;-63
2022/03/05 03:07:51;;;;;;;16.23;9.70;;;-2.40;99.90;;;;;;4378218;32;20176;-62
2022/03/05 03:10:18;;;;;;;16.45;9.75;;;-2.30;99.90;;;;;;4366270;32;20081;-62
2022/03/05 03:12:44;;;;;;;14.02;9.35;;;-2.40;99.90;;;;;;4391780;32;20078;-62
2022/03/05 03:15:13;;;;;;;14.68;10.60;;;-2.30;99.90;;;;;;4391803;32;20522;-62
2022/03/05 03:17:48;;;;;;;16.65;9.60;;;-2.40;99.90;;;;;;4366413;32;20164;-61
2022/03/05 03:20:19;;;;;;;14.40;9.27;;;-2.30;99.90;;;;;;4392490;32;20166;-62
2022/03/05 03:22:46;;;;;;;15.05;11.05;;;-2.30;99.90;;;;;;4391969;32;20073;-61
2022/03/05 03:25:13;;;;;;;15.98;10.20;;;-2.30;99.90;;;;;;4377726;32;20084;-62
2022/03/05 03:27:40;;;;;;;15.23;8.95;;;-2.30;99.90;;;;;;4365469;32;20077;-62
2022/03/05 03:30:09;;;;;;;16.15;8.93;;;-2.30;99.90;;;;;;4379581;32;20092;-61
2022/03/05 03:32:37;;;;;;;16.75;8.80;;;-2.30;99.90;;;;;;4392612;32;20089;-61
2022/03/05 03:35:05;;;;;;;15.90;9.95;;;-2.30;99.90;;;;;;4366063;32;20109;-61
2022/03/05 03:37:31;;;;;;;12.37;8.38;;;-2.30;99.90;;;;;;4365542;32;20061;-61
2022/03/05 03:40:00;;;;;;;13.62;8.93;;;-2.20;99.90;;;;;;4378408;32;20101;-61
2022/03/05 03:42:27;;;;;;;12.55;8.65;;;-2.20;99.90;;;;;;4377658;32;20089;-63
2022/03/05 03:44:54;;;;;;;15.27;9.35;;;-2.20;99.90;;;;;;4378225;32;20204;-62
2022/03/05 03:47:21;;;;;;;14.95;9.35;;;-2.20;99.90;;;;;;4391752;32;20081;-63
2022/03/05 03:49:49;;;;;;;13.70;9.38;;;-2.20;99.90;;;;;;4377411;32;20170;-62
2022/03/05 03:52:15;;;;;;;17.05;8.30;;;-2.20;99.90;;;;;;4392218;32;20070;-62
2022/03/05 03:54:43;;;;;;;14.43;8.52;;;-2.10;99.90;;;;;;4377862;32;20082;-62
2022/03/05 03:57:10;;;;;;;14.15;9.77;;;-2.10;99.90;;;;;;4377927;32;20082;-62
2022/03/05 03:59:36;;;;;;;16.65;10.40;;;-2.20;99.90;;;;;;4377649;32;20072;-61
2022/03/05 04:02:03;;;;;;;15.57;9.60;;;-2.10;99.90;;;;;;4378265;32;20082;-62
2022/03/05 04:04:30;;;;;;;15.75;8.98;;;-2.10;99.90;;;;;;4377457;32;20100;-62
2022/03/05 04:09:42;;;;;;;12.57;7.50;;;-2.10;99.90;;;;;;4386555;32;20085;-62
2022/03/05 04:12:09;;;;;;;14.93;9.23;;;-2.10;99.90;;;;;;4401464;32;20074;-62
2022/03/05 04:14:38;;;;;;;13.68;8.73;;;-2.10;99.90;;;;;;4380209;32;20129;-62
2022/03/05 04:17:06;;;;;;;12.88;7.97;;;-2.10;99.90;;;;;;4375302;32;20541;-62
2022/03/05 04:19:32;;;;;;;11.82;8.55;;;-2.10;99.90;;;;;;4362673;32;20528;-63
2022/03/05 04:21:59;;;;;;;12.57;8.05;;;-2.00;99.90;;;;;;4376574;32;20531;-62
2022/03/05 04:24:26;;;;;;;9.20;5.57;;;-2.00;99.90;;;;;;4374707;32;20078;-62
2022/03/05 04:26:52;;;;;;;10.50;6.87;;;-2.00;99.90;;;;;;4374012;32;20529;-62
2022/03/05 04:29:18;;;;;;;12.05;7.78;;;-2.00;99.90;;;;;;4376434;32;20098;-62
2022/03/05 04:31:44;;;;;;;14.18;7.95;;;-1.90;99.90;;;;;;4374486;32;20108;-62
2022/03/05 04:34:11;;;;;;;15.15;8.60;;;-1.90;99.90;;;;;;4376200;32;20082;-62
2022/03/05 04:36:38;;;;;;;13.10;9.10;;;-2.00;99.90;;;;;;4375156;32;20077;-62
2022/03/05 04:39:04;;;;;;;12.93;8.82;;;-1.90;99.90;;;;;;4362242;32;20082;-61
2022/03/05 04:41:31;;;;;;;14.27;9.05;;;-1.90;99.90;;;;;;4374644;32;20085;-62
2022/03/05 04:43:57;;;;;;;13.30;8.10;;;-1.80;99.90;;;;;;4375255;32;20503;-61
2022/03/05 04:46:23;;;;;;;12.93;8.20;;;-1.90;99.90;;;;;;4374919;32;20512;-62
2022/03/05 04:48:49;;;;;;;15.07;8.07;;;-1.90;99.90;;;;;;4376216;32;20086;-62
2022/03/05 04:51:16;;;;;;;14.75;9.18;;;-1.90;99.90;;;;;;4374454;32;20546;-61
2022/03/05 04:53:42;;;;;;;16.48;9.85;;;-1.90;99.90;;;;;;4362195;32;20155;-61
2022/03/05 04:56:08;;;;;;;16.23;8.70;;;-2.00;99.90;;;;;;4375983;32;20161;-62
2022/03/05 04:58:35;;;;;;;12.90;8.40;;;-2.00;99.90;;;;;;4376268;32;20088;-62
2022/03/05 05:01:02;;;;;;;14.55;8.38;;;-2.00;99.90;;;;;;4375386;32;20077;-63
2022/03/05 05:03:28;;;;;;;15.35;9.98;;;-2.00;99.90;;;;;;4377391;32;20066;-62
2022/03/05 05:05:55;;;;;;;15.45;10.00;;;-2.10;99.90;;;;;;4377245;32;20088;-62
2022/03/05 05:08:21;;;;;;;14.82;8.95;;;-2.10;99.90;;;;;;4377245;32;20085;-63
2022/03/05 05:10:47;;;;;;;12.57;6.72;;;-2.00;99.90;;;;;;4377134;32;20079;-63
2022/03/05 05:13:14;;;;;;;20.12;10.60;;;-2.00;99.90;;;;;;4378629;32;20074;-62
2022/03/05 05:15:40;;;;;;;11.52;7.10;;;-2.10;99.90;;;;;;4376541;32;20169;-64
2022/03/05 05:18:06;;;;;;;14.75;8.27;;;-2.00;99.90;;;;;;4379334;32;20087;-64
2022/03/05 05:20:33;;;;;;;15.30;9.43;;;-2.00;99.90;;;;;;4377149;32;20181;-63
2022/03/05 05:22:59;;;;;;;15.27;9.25;;;-2.00;99.90;;;;;;4379084;32;20082;-63
2022/03/05 05:25:25;;;;;;;17.83;11.20;;;-2.00;99.90;;;;;;4376813;32;20456;-63
2022/03/05 05:27:52;;;;;;;16.10;9.25;;;-2.10;99.90;;;;;;4378128;32;20130;-62
2022/03/05 05:30:18;;;;;;;13.00;9.30;;;-2.00;99.90;;;;;;4377427;32;20087;-62
2022/03/05 05:32:44;;;;;;;15.43;7.93;;;-2.00;99.90;;;;;;4378295;32;20085;-61
2022/03/05 05:35:11;;;;;;;12.65;7.75;;;-2.00;99.90;;;;;;4376526;32;20471;-63
2022/03/05 05:37:37;;;;;;;14.52;9.80;;;-2.00;99.90;;;;;;4378229;32;20169;-63
2022/03/05 05:40:04;;;;;;;15.25;9.82;;;-2.00;99.90;;;;;;4378107;32;20084;-62
2022/03/05 05:42:30;;;;;;;15.68;9.10;;;-1.90;99.90;;;;;;4378080;32;20172;-62
2022/03/05 05:44:57;;;;;;;12.57;7.00;;;-1.90;99.90;;;;;;4380103;32;20089;-61
2022/03/05 05:47:23;;;;;;;13.25;7.68;;;-2.00;99.90;;;;;;4378350;32;20074;-63
2022/03/05 05:49:50;;;;;;;13.60;7.47;;;-2.00;99.90;;;;;;4378515;32;20061;-63
2022/03/05 05:52:18;;;;;;;13.30;9.25;;;-2.00;99.90;;;;;;4364543;32;20096;-63
2022/03/05 05:54:45;;;;;;;13.38;7.78;;;-2.10;99.90;;;;;;4376304;32;20086;-63
2022/03/05 05:57:12;;;;;;;14.63;9.40;;;-2.10;99.90;;;;;;4377914;32;20134;-64
2022/03/05 05:59:38;;;;;;;13.82;7.72;;;-2.10;99.90;;;;;;4376774;32;20078;-63
2022/03/05 06:02:04;;;;;;;14.23;8.57;;;-2.10;99.90;;;;;;4378352;32;20078;-64
2022/03/05 06:04:31;;;;;;;13.68;7.40;;;-2.10;99.90;;;;;;4377833;32;20073;-64
2022/03/05 06:06:58;;;;;;;13.73;7.10;;;-2.10;99.90;;;;;;4378147;32;20097;-63
2022/03/05 06:09:24;;;;;;;15.07;8.90;;;-2.10;99.90;;;;;;4376325;32;20073;-61
2022/03/05 06:11:51;;;;;;;14.30;9.30;;;-2.10;99.90;;;;;;4377779;32;20170;-62
2022/03/05 06:14:18;;;;;;;12.15;6.68;;;-2.10;99.90;;;;;;4376133;32;20542;-61
2022/03/05 06:16:44;;;;;;;15.45;10.35;;;-2.10;99.90;;;;;;4378347;32;20070;-61
2022/03/05 06:19:10;;;;;;;17.00;8.93;;;-2.00;99.90;;;;;;4376435;32;20082;-62
2022/03/05 06:21:37;;;;;;;14.63;8.65;;;-2.00;99.90;;;;;;4376324;32;20481;-64
2022/03/05 06:24:04;;;;;;;15.15;8.00;;;-2.00;99.90;;;;;;4376842;32;20085;-62
2022/03/05 06:26:34;;;;;;;13.82;8.18;;;-2.00;99.90;;;;;;4376342;32;20082;-62
2022/03/05 06:29:00;;;;;;;13.23;8.77;;;-2.00;99.90;;;;;;4364451;32;20086;-62
2022/03/05 06:31:26;;;;;;;12.37;7.78;;;-2.00;99.90;;;;;;4376371;32;20161;-62
2022/03/05 06:33:53;;;;;;;16.83;9.75;;;-1.90;99.90;;;;;;4351311;32;20088;-62
2022/03/05 06:36:19;;;;;;;17.10;9.07;;;-2.00;99.90;;;;;;4377419;32;20075;-62
2022/03/05 06:38:45;;;;;;;16.08;9.93;;;-1.90;99.90;;;;;;4375936;32;20102;-62
2022/03/05 06:41:12;;;;;;;13.40;8.93;;;-1.90;99.90;;;;;;4376020;32;20062;-62
2022/03/05 06:43:38;;;;;;;15.35;9.38;;;-1.90;99.90;;;;;;4363416;32;20070;-61
2022/03/05 06:46:04;;;;;;;13.82;9.23;;;-1.80;99.90;;;;;;4375707;32;20161;-62
2022/03/05 06:48:31;;;;;;;13.18;8.23;;;-1.80;99.90;;;;;;4377099;32;20511;-62
2022/03/05 06:50:57;;;;;;;11.65;7.70;;;-1.70;99.90;;;;;;4377049;32;20464;-62
2022/03/05 06:53:24;;;;;;;13.68;8.50;;;-1.70;99.90;;;;;;4376617;32;20147;-63
2022/03/05 06:55:51;;;;;;;10.98;6.82;;;-1.70;99.90;;;;;;4377275;32;20101;-63
2022/03/05 06:58:17;;;;;;;11.98;7.25;;;-1.70;99.90;;;;;;4375678;32;20476;-62
2022/03/05 07:00:44;;;;;;;11.88;7.55;;;-1.70;99.90;;;;;;4363261;32;20085;-62
2022/03/05 07:03:11;;;;;;;10.77;6.55;;;-1.70;99.90;;;;;;4376920;32;20132;-60
2022/03/05 07:05:37;;;;;;;10.18;5.40;;;-1.70;99.90;;;;;;4362973;32;20074;-61
2022/03/05 07:08:04;;;;;;;11.52;7.97;;;-1.70;99.90;;;;;;4376813;32;20054;-62
2022/03/05 07:10:30;;;;;;;13.77;7.43;;;-1.70;99.90;;;;;;4375470;32;20100;-61
2022/03/05 07:12:56;;;;;;;13.23;7.68;;;-1.70;99.90;;;;;;4375423;32;20074;-61
2022/03/05 07:15:23;;;;;;;11.88;7.95;;;-1.70;99.90;;;;;;4386681;32;20130;-61
2022/03/05 07:17:52;;;;;;;13.05;8.10;;;-1.70;99.90;;;;;;4391809;32;20538;-61
2022/03/05 07:20:19;;;;;;;14.10;6.72;;;-1.80;99.90;;;;;;4378292;32;20085;-60
2022/03/05 07:22:45;;;;;;;16.77;8.35;;;-1.70;99.90;;;;;;4378901;32;20084;-62
2022/03/05 07:25:12;;;;;;;16.67;9.15;;;-1.70;99.90;;;;;;4377378;32;20089;-61
2022/03/05 07:27:39;;;;;;;14.55;9.18;;;-1.70;99.90;;;;;;4378564;32;20090;-61
2022/03/05 07:30:08;;;;;;;12.23;8.73;;;-1.70;99.90;;;;;;4391539;32;20443;-61
2022/03/05 07:32:35;;;;;;;12.23;7.55;;;-1.70;99.90;;;;;;4378082;32;20093;-61
2022/03/05 07:35:04;;;;;;;12.85;8.05;;;-1.60;99.90;;;;;;4391956;32;20074;-62
2022/03/05 07:37:31;;;;;;;11.77;7.85;;;-1.70;99.90;;;;;;4365519;32;20101;-62
2022/03/05 07:39:58;;;;;;;12.23;8.02;;;-1.60;99.90;;;;;;4353203;32;20082;-61
2022/03/05 07:42:24;;;;;;;10.40;7.20;;;-1.60;99.90;;;;;;4391909;32;20149;-63
2022/03/05 07:44:50;;;;;;;11.18;6.60;;;-1.60;99.90;;;;;;4391932;32;20165;-61
2022/03/05 07:47:18;;;;;;;10.20;6.25;;;-1.50;99.90;;;;;;4365725;32;20075;-62
2022/03/05 07:49:44;;;;;;;12.02;7.35;;;-1.60;99.90;;;;;;4377847;32;20085;-61
2022/03/05 07:52:10;;;;;;;10.35;7.22;;;-1.60;99.90;;;;;;4378615;32;20070;-61
2022/03/05 07:54:36;;;;;;;9.63;6.80;;;-1.50;99.90;;;;;;4378038;32;20141;-61
2022/03/05 07:57:03;;;;;;;13.27;6.55;;;-1.50;99.90;;;;;;4377746;32;20088;-61
2022/03/05 07:59:29;;;;;;;12.07;7.07;;;-1.60;99.90;;;;;;4378183;32;20090;-61
2022/03/05 08:01:56;;;;;;;11.38;7.10;;;-1.60;99.90;;;;;;4380513;32;20484;-60
2022/03/05 08:04:22;;;;;;;14.43;7.62;;;-1.60;99.90;;;;;;4391689;32;20164;-62
2022/03/05 08:06:48;;;;;;;9.95;6.32;;;-1.60;99.90;;;;;;4391322;32;20073;-63
2022/03/05 08:09:15;;;;;;;10.52;6.78;;;-1.60;99.90;;;;;;4391164;32;20155;-62
2022/03/05 08:11:41;;;;;;;11.93;8.18;;;-1.60;99.90;;;;;;4391494;32;20589;-62
2022/03/05 08:14:07;;;;;;;12.68;8.57;;;-1.50;99.90;;;;;;4376894;32;20210;-62
2022/03/05 08:16:34;;;;;;;13.27;8.90;;;-1.50;99.90;;;;;;4378064;32;20070;-62
2022/03/05 08:19:00;;;;;;;10.52;7.15;;;-1.50;99.90;;;;;;4391483;32;20159;-61
2022/03/05 08:21:28;;;;;;;13.23;8.65;;;-1.50;99.90;;;;;;4364862;32;20089;-61
2022/03/05 08:23:55;;;;;;;12.27;8.07;;;-1.50;99.90;;;;;;4364766;32;20074;-60
2022/03/05 08:26:22;;;;;;;11.90;7.15;;;-1.50;99.90;;;;;;4365371;32;20090;-63
2022/03/05 08:28:48;;;;;;;14.50;7.72;;;-1.50;99.90;;;;;;4391189;32;20456;-62
2022/03/05 08:31:15;;;;;;;13.35;9.70;;;-1.50;99.90;;;;;;4377873;32;20091;-62
2022/03/05 08:33:41;;;;;;;13.23;8.68;;;-1.50;99.90;;;;;;4364635;32;20080;-62
2022/03/05 08:36:08;;;;;;;14.57;9.35;;;-1.50;99.90;;;;;;4391828;32;20601;-62
2022/03/05 08:38:36;;;;;;;12.45;9.13;;;-1.50;99.90;;;;;;4380557;32;20076;-61
2022/03/05 08:41:04;;;;;;;13.98;8.30;;;-1.50;99.90;;;;;;4367782;32;20082;-62
2022/03/05 08:43:30;;;;;;;14.40;9.63;;;-1.50;99.90;;;;;;4379978;32;20073;-61
2022/03/05 08:45:56;;;;;;;13.48;9.07;;;-1.50;99.90;;;;;;4380321;32;20094;-61
2022/03/05 08:48:23;;;;;;;13.50;7.80;;;-1.50;99.90;;;;;;4394780;32;20441;-63
2022/03/05 08:50:49;;;;;;;13.23;8.73;;;-1.60;99.90;;;;;;4394127;32;20146;-63
2022/03/05 08:53:16;;;;;;;11.77;8.15;;;-1.60;99.90;;;;;;4380170;32;20086;-63
2022/03/05 08:55:42;;;;;;;12.00;6.15;;;-1.50;99.90;;;;;;4393877;32;20094;-62
2022/03/05 08:58:08;;;;;;;13.95;7.10;;;-1.60;99.90;;;;;;4379948;32;20081;-62
2022/03/05 09:00:35;;;;;;;12.57;8.52;;;-1.50;99.90;;;;;;4380112;32;20073;-61
2022/03/05 09:03:01;;;;;;;12.95;9.02;;;-1.60;99.90;;;;;;4394001;32;20078;-62
2022/03/05 09:05:28;;;;;;;12.70;9.55;;;-1.50;99.90;;;;;;4394103;32;20109;-63
2022/03/05 09:07:54;;;;;;;14.82;8.02;;;-1.60;99.90;;;;;;4393766;32;20176;-61
2022/03/05 09:10:20;;;;;;;11.95;6.57;;;-1.60;99.90;;;;;;4380003;32;20185;-62
2022/03/05 09:12:46;;;;;;;12.88;7.25;;;-1.50;99.90;;;;;;4393784;32;20062;-62
2022/03/05 09:15:13;;;;;;;11.35;8.15;;;-1.50;99.90;;;;;;4376778;32;20074;-61
2022/03/05 09:17:40;;;;;;;13.07;7.18;;;-1.50;99.90;;;;;;4379054;32;20159;-61
2022/03/05 09:20:07;;;;;;;12.23;8.48;;;-1.50;99.90;;;;;;4378499;32;20077;-63
2022/03/05 09:22:34;;;;;;;13.43;8.38;;;-1.40;99.90;;;;;;4378886;32;20058;-61
2022/03/05 09:25:00;;;;;;;8.68;5.90;;;-1.40;99.90;;;;;;4364884;32;20522;-62
2022/03/05 09:27:26;;;;;;;10.57;5.78;;;-1.40;99.90;;;;;;4378972;32;20124;-63
2022/03/05 09:29:53;;;;;;;12.57;8.55;;;-1.30;99.90;;;;;;4379040;32;20078;-61
2022/03/05 09:32:19;;;;;;;10.73;6.20;;;-1.40;99.90;;;;;;4380381;32;20081;-61
2022/03/05 09:34:46;;;;;;;11.27;7.47;;;-1.40;99.90;;;;;;4388288;32;20086;-63
2022/03/05 09:37:13;;;;;;;6.40;4.22;;;-1.40;99.90;;;;;;4378048;32;20079;-61
2022/03/05 09:39:39;;;;;;;9.70;6.72;;;-1.30;99.90;;;;;;4377676;32;20165;-63
2022/03/05 09:42:06;;;;;;;10.93;7.75;;;-1.30;99.90;;;;;;4365322;32;20094;-62
2022/03/05 09:44:34;;;;;;;11.85;7.87;;;-1.40;99.90;;;;;;4380374;32;20154;-62
2022/03/05 09:47:01;;;;;;;10.60;6.32;;;-1.30;99.90;;;;;;4382213;32;20090;-62
2022/03/05 09:49:29;;;;;;;11.63;7.28;;;-1.30;99.90;;;;;;4381709;32;20069;-62
2022/03/05 09:51:59;;;;;;;9.80;5.75;;;-1.20;99.90;;;;;;4377835;32;20086;-63
2022/03/05 09:54:27;;;;;;;10.57;6.87;;;-1.20;99.90;;;;;;4364607;32;20115;-63
2022/03/05 09:56:55;;;;;;;10.75;5.53;;;-1.30;99.90;;;;;;4376911;32;20169;-62
2022/03/05 09:59:22;;;;;;;11.43;7.72;;;-1.30;99.90;;;;;;4364078;32;20157;-63
2022/03/05 10:01:50;;;;;;;9.32;6.57;;;-1.30;99.90;;;;;;4376976;32;20150;-62
2022/03/05 10:04:25;;;;;;;11.70;7.00;;;-1.20;99.90;;;;;;4376774;32;20174;-63
2022/03/05 10:07:17;;;;;;;9.57;5.93;;;-1.20;99.90;;;;;;4376785;32;20162;-63
2022/03/05 10:09:47;;;;;;;12.52;8.07;;;-1.20;99.90;;;;;;4377926;32;20126;-62
2022/03/05 10:12:26;;;;;;;9.55;5.37;;;-1.10;99.90;;;;;;4352110;32;20088;-62
2022/03/05 10:15:21;;;;;;;20.92;9.00;;;-1.10;99.90;;;;;;4384548;32;20170;-63
2022/03/05 10:18:06;;;;;;;12.55;7.80;;;-1.20;99.90;;;;;;4396800;32;20085;-62
2022/03/05 10:20:34;;;;;;;9.98;6.50;;;-1.20;99.90;;;;;;4366172;32;20533;-61
2022/03/05 10:23:07;;;;;;;11.50;7.18;;;-1.10;99.90;;;;;;4392704;32;20084;-62
2022/03/05 10:25:41;;;;;;;10.65;6.78;;;-1.10;99.90;;;;;;4392671;32;20078;-63
2022/03/05 10:28:26;;;;;;;10.77;7.72;;;-1.00;99.90;;;;;;4378443;32;20070;-63
2022/03/05 10:31:02;;;;;;;9.30;6.53;;;-1.00;99.90;;;;;;4392593;32;20153;-63
2022/03/05 10:33:46;;;;;;;10.43;5.97;;;-1.00;99.90;;;;;;4391371;32;20153;-66
2022/03/05 10:36:22;;;;;;;9.45;6.28;;;-0.90;99.90;;;;;;4378227;32;20513;-62
2022/03/05 10:39:02;;;;;;;9.63;7.03;;;-0.90;99.90;;;;;;4378577;32;20062;-63
2022/03/05 10:41:40;;;;;;;9.15;5.18;;;-1.00;99.90;;;;;;4354326;32;20161;-63
2022/03/05 10:44:11;;;;;;;9.27;6.03;;;-0.90;99.90;;;;;;4378401;32;20078;-63
2022/03/05 10:46:46;;;;;;;9.55;5.87;;;-0.90;99.90;;;;;;4392109;32;20644;-63
2022/03/05 10:49:28;;;;;;;9.52;6.00;;;-0.90;99.90;;;;;;4378492;32;20255;-62
2022/03/05 10:52:00;;;;;;;9.35;6.20;;;-1.00;99.90;;;;;;4378434;32;20078;-62
2022/03/05 10:54:29;;;;;;;10.02;5.87;;;-0.90;99.90;;;;;;4392500;32;20226;-62
2022/03/05 10:56:57;;;;;;;10.57;6.60;;;-0.90;99.90;;;;;;4365406;32;20146;-63
2022/03/05 10:59:23;;;;;;;9.05;5.85;;;-1.00;99.90;;;;;;4391598;32;20520;-63
2022/03/05 11:01:50;;;;;;;8.95;5.65;;;-0.80;99.90;;;;;;4392208;32;20156;-63
2022/03/05 11:04:16;;;;;;;7.97;5.22;;;-0.90;99.90;;;;;;4392627;32;20156;-61
2022/03/05 11:06:44;;;;;;;10.30;6.57;;;-0.90;99.90;;;;;;4365680;32;20231;-62
2022/03/05 11:09:13;;;;;;;12.73;5.90;;;-0.90;99.90;;;;;;4378194;32;20082;-62
2022/03/05 11:11:42;;;;;;;8.50;6.03;;;-0.80;99.90;;;;;;4391792;32;20152;-63
2022/03/05 11:14:15;;;;;;;7.32;5.12;;;-0.90;99.90;;;;;;4378057;32;20062;-63
2022/03/05 11:16:44;;;;;;;6.90;4.70;;;-0.90;99.90;;;;;;4378028;32;20145;-62
2022/03/05 11:19:11;;;;;;;7.70;4.82;;;-0.90;99.90;;;;;;4391960;32;20536;-61
2022/03/05 11:21:40;;;;;;;7.20;4.90;;;-0.90;99.90;;;;;;4391903;32;20072;-62
2022/03/05 11:24:07;;;;;;;7.90;5.55;;;-0.90;99.90;;;;;;4366235;32;20074;-62
2022/03/05 11:26:37;;;;;;;7.75;5.65;;;-0.90;99.90;;;;;;4378942;32;20156;-62
2022/03/05 11:29:03;;;;;;;9.05;5.40;;;-1.00;99.90;;;;;;4365473;32;20599;-63
2022/03/05 11:31:33;;;;;;;9.90;5.40;;;-0.90;99.90;;;;;;4377700;32;20089;-62
2022/03/05 11:34:25;;;;;;;9.75;6.25;;;-1.00;99.90;;;;;;4377428;32;20247;-62
2022/03/05 11:36:52;;;;;;;10.77;5.97;;;-1.10;99.90;;;;;;4377683;32;20161;-62
2022/03/05 11:39:36;;;;;;;10.88;6.72;;;-1.10;99.90;;;;;;4377485;32;20157;-63
2022/03/05 11:42:07;;;;;;;10.98;7.60;;;-1.10;99.90;;;;;;4378422;32;20085;-61
2022/03/05 11:44:36;;;;;;;10.75;6.68;;;-1.10;99.90;;;;;;4378297;32;20197;-62
2022/03/05 11:47:21;;;;;;;13.32;7.70;;;-1.20;99.90;;;;;;4391897;32;20189;-63
2022/03/05 11:50:11;;;;;;;10.80;6.87;;;-1.20;99.90;;;;;;4379940;32;20182;-62
2022/03/05 11:53:04;;;;;;;13.23;7.82;;;-1.20;99.90;;;;;;4394686;32;20084;-62
2022/03/05 11:55:49;;;;;;;13.25;9.75;;;-1.30;99.90;;;;;;4401310;32;20096;-62
2022/03/05 11:58:35;;;;;;;10.98;7.12;;;-1.40;99.90;;;;;;4380160;32;20506;-62
2022/03/05 12:01:39;;;;;;;14.10;8.70;;;-1.30;99.90;;;;;;4391440;32;20524;-61
2022/03/05 12:04:28;;;;;;;14.20;8.98;;;-1.50;99.90;;;;;;4379653;32;20076;-62
2022/03/05 12:07:14;;;;;;;13.82;8.55;;;-1.60;99.90;;;;;;4391550;32;20497;-62
2022/03/05 12:10:04;;;;;;;14.50;9.17;;;-1.70;99.90;;;;;;4391310;32;20572;-62
2022/03/05 12:12:54;;;;;;;14.15;9.27;;;-1.70;99.90;;;;;;4391446;32;20280;-62
2022/03/05 12:15:45;;;;;;;14.77;10.85;;;-1.70;99.90;;;;;;4379645;32;20162;-62
2022/03/05 12:18:31;;;;;;;14.75;11.12;;;-1.70;99.90;;;;;;4392165;32;20076;-62
2022/03/05 12:21:35;;;;;;;13.75;8.15;;;-1.80;99.90;;;;;;4379586;32;20084;-62
2022/03/05 12:24:24;;;;;;;13.02;7.57;;;-1.80;99.90;;;;;;4369064;32;20108;-61
2022/03/05 12:27:16;;;;;;;15.57;10.30;;;-1.80;99.90;;;;;;4391358;32;20092;-62
2022/03/05 12:30:01;;;;;;;14.82;8.95;;;-1.90;99.90;;;;;;4379587;32;20088;-61
2022/03/05 12:32:47;;;;;;;13.05;7.40;;;-1.80;99.90;;;;;;4370933;32;20186;-61
2022/03/05 12:35:33;;;;;;;12.60;7.30;;;-1.80;99.90;;;;;;4392794;32;20169;-61
2022/03/05 12:38:22;;;;;;;14.77;8.98;;;-1.80;99.90;;;;;;4369334;32;20108;-62
2022/03/05 12:41:07;;;;;;;13.90;8.65;;;-1.90;99.90;;;;;;4379280;32;20472;-62
2022/03/05 12:43:52;;;;;;;15.15;11.30;;;-1.90;99.90;;;;;;4379823;32;20096;-61
2022/03/05 12:46:19;;;;;;;18.15;10.23;;;-2.00;99.90;;;;;;4377478;32;20073;-62
2022/03/05 12:48:45;;;;;;;15.07;9.73;;;-2.10;99.90;;;;;;4377138;32;20145;-62
2022/03/05 12:51:12;;;;;;;16.52;7.78;;;-2.20;99.90;;;;;;4390978;32;20169;-62